EGGP/LPL METAR and TAF weather

Enter ICAO airport designator
Station Type Date Time Source
EGGP METAR 2019/12/14 11:20 UTC NOAA

EGGP 141120Z 26021KT 9999 FEW033 06/02 Q0985


Station Type Date Time Source
EGGP Decoded METAR 2019/12/14 11:20 UTC NOAA

Liverpool Airport , United Kingdom (EGGP) 53-20N 002-51W
Dec 14, 2019 - 06:20 AM EST / 2019.12.14 1120 UTC
Wind: from the W (260 degrees) at 24 MPH (21 KT):0
Visibility: greater than 7 mile(s):0
Sky conditions: mostly clear
Temperature: 42 F (6 C)
Dew Point: 35 F (2 C)
Relative Humidity: 75%
Pressure (altimeter): 29.09 in. Hg (0985 hPa)
ob: EGGP 141120Z 26021KT 9999 FEW033 06/02 Q0985
cycle: 11

Station Type Date Time Source
EGGP TAF 2019/12/14 12:09 UTC NOAA

TAF TAF EGGP 141101Z 1412/1512 26015KT 9999 FEW010 SCT030
TEMPO 1412/1415 27018G30KT 6000 SHRA BKN010
BECMG 1416/1419 20012KT
TEMPO 1419/1502 8000 -RA BKN010 PROB30
TEMPO 1421/1502 4000 RA BKN005
BECMG 1506/1509 VRB04KT

Example: see airport list